Time;durP1;ratioP1;P1;durP2;ratioP2;P2;SDS_P1;SDS_P2;PMS_P1;PMS_P2;Temp;Humidity;BMP_temperature;BMP_pressure;BME280_temperature;BME280_humidity;BME280_pressure;Samples;Min_cycle;Max_cycle;Signal;HPM_P1;HPM_P2
2021/12/01 00:01:03;;;;;;;11.05;5.20;;;14.00;73.50;;;;;;4961001;28;20105;-75
2021/12/01 00:03:29;;;;;;;9.10;5.30;;;13.90;73.50;;;;;;4977982;28;20050;-75
2021/12/01 00:05:55;;;;;;;10.27;4.85;;;13.90;73.60;;;;;;4978201;28;20042;-74
2021/12/01 00:08:22;;;;;;;11.30;4.97;;;13.90;73.80;;;;;;4978394;28;20405;-74
2021/12/01 00:10:47;;;;;;;10.05;5.43;;;14.00;73.50;;;;;;4978045;28;20078;-74
2021/12/01 00:13:16;;;;;;;7.70;4.78;;;13.90;73.70;;;;;;4978159;28;20098;-75
2021/12/01 00:15:44;;;;;;;10.45;5.40;;;14.00;73.50;;;;;;4977879;28;20094;-74
2021/12/01 00:18:10;;;;;;;9.80;5.60;;;14.00;73.60;;;;;;4978050;28;20051;-74
2021/12/01 00:20:36;;;;;;;9.18;5.30;;;13.90;73.70;;;;;;4977002;28;20077;-75
2021/12/01 00:23:03;;;;;;;8.63;5.03;;;13.90;73.50;;;;;;4977835;28;20058;-74
2021/12/01 00:25:30;;;;;;;11.55;5.07;;;13.90;73.70;;;;;;4977798;28;20047;-74
2021/12/01 00:27:56;;;;;;;9.05;4.82;;;13.90;73.70;;;;;;4977635;28;20466;-74
2021/12/01 00:30:24;;;;;;;9.52;4.82;;;13.90;73.70;;;;;;4977488;28;20078;-74
2021/12/01 00:32:52;;;;;;;10.73;4.80;;;13.90;73.70;;;;;;4977830;28;20082;-75
2021/12/01 00:35:18;;;;;;;11.77;4.68;;;13.90;73.60;;;;;;4977051;28;20062;-74
2021/12/01 00:37:44;;;;;;;11.85;5.10;;;13.80;73.70;;;;;;4976506;28;20051;-73
2021/12/01 00:40:11;;;;;;;8.55;4.55;;;13.90;73.90;;;;;;4977243;28;20339;-73
2021/12/01 00:42:38;;;;;;;11.23;5.07;;;13.90;73.50;;;;;;4977355;28;20106;-74
2021/12/01 00:45:12;;;;;;;10.05;5.30;;;13.90;73.50;;;;;;4977077;28;20050;-74
2021/12/01 00:47:43;;;;;;;10.77;4.85;;;13.90;73.70;;;;;;4977230;28;20061;-73
2021/12/01 00:50:14;;;;;;;12.80;4.85;;;13.90;73.80;;;;;;4977301;28;20420;-74
2021/12/01 00:52:40;;;;;;;8.57;4.60;;;13.80;73.70;;;;;;4977157;28;20090;-74
2021/12/01 00:55:07;;;;;;;9.50;5.28;;;13.80;73.90;;;;;;4977076;28;20089;-74
2021/12/01 00:57:33;;;;;;;8.95;4.47;;;13.80;73.80;;;;;;4977029;28;20046;-74
2021/12/01 00:59:59;;;;;;;10.20;4.20;;;13.80;73.90;;;;;;4977188;28;20043;-73
2021/12/01 01:02:25;;;;;;;8.70;4.43;;;13.70;74.10;;;;;;4976894;28;20105;-74
2021/12/01 01:04:50;;;;;;;8.80;3.72;;;13.70;74.20;;;;;;4977189;28;20062;-73
2021/12/01 01:07:16;;;;;;;9.90;3.70;;;13.70;74.20;;;;;;4977481;28;20517;-74
2021/12/01 01:09:43;;;;;;;9.98;4.00;;;13.70;74.20;;;;;;4976643;28;20130;-73
2021/12/01 01:17:41;;;;;;;8.65;3.80;;;13.70;74.00;;;;;;4976979;28;20051;-75
2021/12/01 01:20:11;;;;;;;10.35;3.65;;;13.70;74.10;;;;;;4976557;28;20058;-75
2021/12/01 01:22:38;;;;;;;11.00;3.75;;;13.60;74.20;;;;;;4976988;28;20422;-74
2021/12/01 01:25:07;;;;;;;7.53;3.25;;;13.60;74.10;;;;;;4977036;28;20134;-74
2021/12/01 01:27:33;;;;;;;9.15;3.50;;;13.70;74.10;;;;;;4976742;28;20066;-75
2021/12/01 01:30:00;;;;;;;9.93;3.33;;;13.70;74.00;;;;;;4976329;28;20426;-74
2021/12/01 01:32:26;;;;;;;8.75;3.33;;;13.70;74.00;;;;;;4976728;28;20061;-74
2021/12/01 01:34:52;;;;;;;8.85;3.20;;;13.70;74.10;;;;;;4976353;28;20046;-74
2021/12/01 01:37:17;;;;;;;8.98;3.63;;;13.60;74.20;;;;;;4976779;28;20042;-74
2021/12/01 01:39:43;;;;;;;8.20;3.22;;;13.60;74.10;;;;;;4976535;28;20379;-75
2021/12/01 01:42:09;;;;;;;11.63;3.05;;;13.60;74.10;;;;;;4976549;28;20137;-74
2021/12/01 01:44:35;;;;;;;6.85;2.20;;;13.60;74.20;;;;;;4976282;28;20108;-73
2021/12/01 01:47:00;;;;;;;7.47;2.72;;;13.60;74.30;;;;;;4976080;28;20053;-74
2021/12/01 01:49:45;;;;;;;8.80;2.60;;;13.60;74.50;;;;;;4976286;28;20073;-75
2021/12/01 01:52:11;;;;;;;9.65;2.45;;;13.60;74.50;;;;;;4976985;28;20050;-74
2021/12/01 01:54:38;;;;;;;8.23;2.30;;;13.60;74.40;;;;;;4976302;28;20424;-73
2021/12/01 01:57:04;;;;;;;7.95;2.28;;;13.60;74.50;;;;;;4959477;28;20125;-74
2021/12/01 01:59:30;;;;;;;7.70;2.60;;;13.60;74.40;;;;;;4976343;28;20097;-74
2021/12/01 02:01:58;;;;;;;7.68;2.28;;;13.60;74.40;;;;;;4976408;28;20434;-75
2021/12/01 02:04:26;;;;;;;9.73;2.85;;;13.60;74.60;;;;;;4976698;28;20082;-74
2021/12/01 02:06:52;;;;;;;7.35;2.20;;;13.50;74.60;;;;;;4976074;28;20055;-75
2021/12/01 02:09:20;;;;;;;8.30;2.08;;;13.50;74.60;;;;;;4975921;28;20050;-74
2021/12/01 02:11:46;;;;;;;9.85;2.25;;;13.50;74.70;;;;;;4957176;28;20371;-73
2021/12/01 02:14:12;;;;;;;9.32;1.80;;;13.60;74.70;;;;;;4957174;29;20047;-74
2021/12/01 02:16:39;;;;;;;8.63;1.60;;;13.60;74.50;;;;;;4956801;29;20426;-75
2021/12/01 02:19:05;;;;;;;8.90;1.98;;;13.60;74.60;;;;;;4957056;29;20056;-73
2021/12/01 02:21:32;;;;;;;9.68;1.80;;;13.60;74.70;;;;;;4957091;29;20153;-75
2021/12/01 02:24:01;;;;;;;6.85;1.85;;;13.60;74.60;;;;;;4956729;29;20055;-75
2021/12/01 02:26:28;;;;;;;5.53;1.55;;;13.60;74.60;;;;;;4940411;29;20061;-75
2021/12/01 02:28:58;;;;;;;6.30;1.40;;;13.60;74.60;;;;;;4956976;29;20134;-74
2021/12/01 02:31:28;;;;;;;8.07;1.85;;;13.60;74.50;;;;;;4956199;29;20087;-74
2021/12/01 02:33:54;;;;;;;5.55;1.45;;;13.60;74.50;;;;;;4956999;29;20043;-74
2021/12/01 02:36:20;;;;;;;5.68;1.60;;;13.60;74.50;;;;;;4956502;29;20454;-74
2021/12/01 02:38:47;;;;;;;8.02;1.60;;;13.60;74.50;;;;;;4957176;29;20129;-74
2021/12/01 02:41:15;;;;;;;4.35;1.25;;;13.60;74.50;;;;;;4956358;28;20098;-74
2021/12/01 02:43:42;;;;;;;6.32;2.08;;;13.60;74.60;;;;;;4956771;28;20055;-75
2021/12/01 02:46:07;;;;;;;4.68;1.10;;;13.50;74.70;;;;;;4956451;28;20043;-74
2021/12/01 02:48:41;;;;;;;8.82;1.95;;;13.60;74.70;;;;;;4956709;28;20141;-76
2021/12/01 02:51:08;;;;;;;7.82;2.00;;;13.60;74.70;;;;;;4956489;28;20134;-74
2021/12/01 02:53:34;;;;;;;7.15;1.85;;;13.60;74.70;;;;;;4955867;29;20043;-74
2021/12/01 02:56:02;;;;;;;8.50;1.70;;;13.50;74.70;;;;;;4956749;28;20054;-75
2021/12/01 02:58:32;;;;;;;7.22;1.45;;;13.60;74.70;;;;;;4957244;28;20478;-74
2021/12/01 03:01:03;;;;;;;5.68;1.25;;;13.60;74.60;;;;;;4959357;28;20043;-74
2021/12/01 03:03:30;;;;;;;9.02;1.50;;;13.60;75.20;;;;;;4960218;28;20134;-74
2021/12/01 03:05:57;;;;;;;6.75;1.80;;;13.60;74.30;;;;;;4960098;28;20415;-75
2021/12/01 03:08:23;;;;;;;9.15;2.08;;;13.60;74.30;;;;;;4959992;28;20362;-76
2021/12/01 03:10:52;;;;;;;11.02;2.03;;;13.60;74.30;;;;;;4959569;28;20048;-74
2021/12/01 03:13:19;;;;;;;7.85;2.10;;;13.60;74.30;;;;;;4959516;28;20143;-74
2021/12/01 03:15:46;;;;;;;7.93;1.73;;;13.60;74.30;;;;;;4959731;28;20047;-75
2021/12/01 03:18:13;;;;;;;8.60;1.70;;;13.60;74.20;;;;;;4959504;28;20051;-74
2021/12/01 03:20:39;;;;;;;8.43;1.52;;;13.60;74.40;;;;;;4959539;28;20070;-74
2021/12/01 03:23:07;;;;;;;7.45;1.73;;;13.60;74.30;;;;;;4959878;28;20114;-74
2021/12/01 03:25:33;;;;;;;6.25;1.70;;;13.60;74.40;;;;;;4959495;29;20126;-75
2021/12/01 03:28:00;;;;;;;8.02;1.65;;;13.60;74.30;;;;;;4959787;28;20443;-74
2021/12/01 03:30:26;;;;;;;6.75;1.38;;;13.60;74.40;;;;;;4959518;28;20435;-74
2021/12/01 03:32:51;;;;;;;10.70;2.10;;;13.60;74.40;;;;;;4959619;28;20058;-75
2021/12/01 03:35:18;;;;;;;6.25;1.55;;;13.60;74.30;;;;;;4959176;28;20094;-74
2021/12/01 03:37:46;;;;;;;9.32;2.13;;;13.60;74.30;;;;;;4958994;28;20054;-75
2021/12/01 03:40:14;;;;;;;5.45;1.50;;;13.60;74.40;;;;;;4959319;28;20083;-74
2021/12/01 03:42:41;;;;;;;7.57;1.63;;;13.60;74.20;;;;;;4958702;28;20063;-74
2021/12/01 03:45:07;;;;;;;8.20;1.50;;;13.60;74.20;;;;;;4959078;28;20043;-74
2021/12/01 03:47:33;;;;;;;11.18;2.85;;;13.60;74.20;;;;;;4959574;28;20047;-74
2021/12/01 03:49:59;;;;;;;8.65;1.67;;;13.60;74.20;;;;;;4958991;28;20055;-74
2021/12/01 03:52:25;;;;;;;9.52;2.17;;;13.60;74.40;;;;;;4959328;29;20117;-74
2021/12/01 03:54:52;;;;;;;10.05;1.83;;;13.60;74.50;;;;;;4959805;28;20070;-74
2021/12/01 03:57:18;;;;;;;11.95;2.72;;;13.50;74.50;;;;;;4959443;29;20054;-75
2021/12/01 03:59:44;;;;;;;8.82;2.10;;;13.50;74.60;;;;;;4958714;28;20461;-74
2021/12/01 04:02:10;;;;;;;10.73;1.92;;;13.50;74.60;;;;;;4957783;29;20083;-74
2021/12/01 04:04:37;;;;;;;11.43;2.40;;;13.50;74.60;;;;;;4959179;28;20097;-74
2021/12/01 04:07:03;;;;;;;14.23;2.67;;;13.50;74.70;;;;;;4958016;29;20043;-75
2021/12/01 04:09:31;;;;;;;6.80;1.80;;;13.50;74.60;;;;;;4958485;28;20043;-75
2021/12/01 04:11:57;;;;;;;12.43;2.75;;;13.60;74.60;;;;;;4958818;28;20047;-74
2021/12/01 04:14:23;;;;;;;10.85;2.05;;;13.60;74.70;;;;;;4958477;28;20086;-74
2021/12/01 04:16:49;;;;;;;11.93;2.28;;;13.50;74.70;;;;;;4958606;28;20093;-74
2021/12/01 04:19:15;;;;;;;12.95;3.53;;;13.50;75.00;;;;;;4957575;29;20370;-74
2021/12/01 04:21:41;;;;;;;11.23;2.58;;;13.50;74.90;;;;;;4958358;28;20138;-75
2021/12/01 04:24:07;;;;;;;12.88;3.42;;;13.50;74.80;;;;;;4958368;29;20059;-74
2021/12/01 04:26:34;;;;;;;11.32;2.70;;;13.50;75.10;;;;;;4957563;29;20467;-74
2021/12/01 04:29:03;;;;;;;9.57;2.75;;;13.50;74.90;;;;;;4958123;28;20474;-74
2021/12/01 04:31:29;;;;;;;11.68;2.78;;;13.50;75.60;;;;;;4958633;28;20062;-74
2021/12/01 04:33:56;;;;;;;10.05;2.70;;;13.50;75.20;;;;;;4958555;28;20123;-74
2021/12/01 04:36:27;;;;;;;10.70;2.88;;;13.50;75.20;;;;;;4957291;29;20047;-74
2021/12/01 04:38:53;;;;;;;9.27;2.47;;;13.50;75.40;;;;;;4958769;28;20047;-75
2021/12/01 04:41:21;;;;;;;12.13;2.92;;;13.50;75.40;;;;;;4958224;29;20146;-73
2021/12/01 04:43:47;;;;;;;11.57;3.00;;;13.50;75.60;;;;;;4957968;29;20055;-74
2021/12/01 04:46:16;;;;;;;11.23;2.35;;;13.50;75.50;;;;;;4958348;28;20047;-74
2021/12/01 04:48:43;;;;;;;10.95;2.60;;;13.50;75.70;;;;;;4957780;28;20058;-74
2021/12/01 04:51:09;;;;;;;8.13;2.22;;;13.50;75.50;;;;;;4958557;28;20046;-73
2021/12/01 04:53:35;;;;;;;7.57;2.05;;;13.50;76.10;;;;;;4957611;29;20114;-74
2021/12/01 04:56:01;;;;;;;7.60;1.90;;;13.50;75.60;;;;;;4957510;28;20043;-74
2021/12/01 04:58:28;;;;;;;8.38;1.80;;;13.50;75.70;;;;;;4957456;28;20486;-74
2021/12/01 05:00:54;;;;;;;9.75;2.13;;;13.60;75.20;;;;;;4957739;28;20057;-74
2021/12/01 05:03:20;;;;;;;10.00;1.70;;;13.70;74.60;;;;;;4957670;28;20118;-74
2021/12/01 05:05:46;;;;;;;10.18;1.80;;;13.80;74.20;;;;;;4958315;29;20155;-74
2021/12/01 05:08:11;;;;;;;10.73;1.42;;;13.90;73.90;;;;;;4956599;29;20105;-73
2021/12/01 05:10:37;;;;;;;14.70;1.92;;;13.90;73.80;;;;;;4958009;29;20129;-74
2021/12/01 05:13:03;;;;;;;7.80;1.30;;;14.00;73.90;;;;;;4955595;29;20107;-76
2021/12/01 05:15:28;;;;;;;8.38;1.60;;;14.10;73.50;;;;;;4956653;29;20058;-74
2021/12/01 05:17:54;;;;;;;6.88;1.30;;;14.20;73.10;;;;;;4958264;28;20145;-72
2021/12/01 05:20:21;;;;;;;4.35;1.02;;;14.50;72.60;;;;;;4955226;29;20117;-74
2021/12/01 05:22:47;;;;;;;5.57;0.60;;;14.70;72.10;;;;;;4956551;28;20035;-73
2021/12/01 05:25:13;;;;;;;8.70;1.15;;;15.00;71.50;;;;;;4956235;29;20053;-75
2021/12/01 05:27:38;;;;;;;6.53;0.88;;;15.20;71.10;;;;;;4957624;29;20051;-76
2021/12/01 05:30:05;;;;;;;5.45;0.85;;;15.40;70.70;;;;;;4957266;28;20039;-73
2021/12/01 05:32:31;;;;;;;7.10;0.95;;;15.60;70.30;;;;;;4957189;29;20047;-74
2021/12/01 05:34:58;;;;;;;3.58;1.00;;;15.70;70.20;;;;;;4958043;28;20058;-77
2021/12/01 05:37:24;;;;;;;9.23;2.53;;;15.80;70.20;;;;;;4957607;28;20063;-72
2021/12/01 05:39:49;;;;;;;8.63;1.60;;;16.00;70.80;;;;;;4956377;29;20051;-73
2021/12/01 05:42:16;;;;;;;8.00;1.15;;;16.00;71.00;;;;;;4957307;29;20150;-77
2021/12/01 05:44:43;;;;;;;7.80;1.27;;;16.10;70.50;;;;;;4954773;29;20051;-78
2021/12/01 05:47:09;;;;;;;6.70;1.20;;;16.10;70.40;;;;;;4956424;29;20090;-76
2021/12/01 05:49:43;;;;;;;5.47;0.73;;;16.20;70.70;;;;;;4956489;28;20478;-77
2021/12/01 05:52:09;;;;;;;6.97;1.42;;;16.20;70.40;;;;;;4957618;28;20055;-77
2021/12/01 05:54:36;;;;;;;5.38;0.77;;;16.20;70.50;;;;;;4956383;28;20061;-76
2021/12/01 05:57:03;;;;;;;6.70;1.17;;;16.20;70.60;;;;;;4956304;29;20098;-73
2021/12/01 05:59:29;;;;;;;7.10;1.23;;;16.20;70.80;;;;;;4957269;29;20055;-75
2021/12/01 06:01:54;;;;;;;4.45;0.75;;;16.20;70.70;;;;;;4940083;29;20127;-76
2021/12/01 06:04:24;;;;;;;8.32;1.05;;;16.20;70.70;;;;;;4956621;29;20130;-76
2021/12/01 06:06:50;;;;;;;5.70;0.80;;;16.10;70.90;;;;;;4955872;29;20051;-75
2021/12/01 06:09:16;;;;;;;8.95;1.10;;;16.10;71.10;;;;;;4955992;29;20062;-75
2021/12/01 06:11:42;;;;;;;9.43;1.00;;;16.10;71.40;;;;;;4957509;28;20354;-73
2021/12/01 06:14:08;;;;;;;5.43;0.50;;;16.00;71.60;;;;;;4956530;29;20054;-76
2021/12/01 06:16:34;;;;;;;6.63;0.68;;;16.00;71.80;;;;;;4956047;29;20047;-76
2021/12/01 06:19:00;;;;;;;5.68;0.77;;;16.00;71.80;;;;;;4956195;29;20362;-73
2021/12/01 06:21:26;;;;;;;3.33;0.50;;;16.00;71.80;;;;;;4955790;29;20375;-75
2021/12/01 06:23:51;;;;;;;15.85;0.98;;;16.00;72.10;;;;;;4951791;29;20051;-75
2021/12/01 06:26:18;;;;;;;5.25;0.65;;;16.00;72.10;;;;;;4956231;29;20058;-77
2021/12/01 06:28:44;;;;;;;5.05;0.70;;;16.10;72.10;;;;;;4956663;29;20467;-76
2021/12/01 06:31:09;;;;;;;4.22;0.52;;;16.10;72.10;;;;;;4956369;29;20094;-76
2021/12/01 06:33:35;;;;;;;6.13;0.50;;;16.10;71.80;;;;;;4956406;28;20059;-73
2021/12/01 06:36:01;;;;;;;5.15;0.55;;;16.20;71.80;;;;;;4959691;29;20059;-77
2021/12/01 06:38:27;;;;;;;5.25;0.52;;;16.30;71.50;;;;;;4959103;29;20062;-76
2021/12/01 06:40:52;;;;;;;4.93;0.70;;;16.40;71.40;;;;;;4958341;29;20047;-77
2021/12/01 06:43:18;;;;;;;7.95;1.05;;;16.40;71.30;;;;;;4960388;29;20094;-73
2021/12/01 06:45:45;;;;;;;6.30;0.77;;;16.50;71.20;;;;;;4959211;29;20459;-77
2021/12/01 06:48:11;;;;;;;7.03;1.00;;;16.50;71.00;;;;;;4960009;28;20086;-77
2021/12/01 06:50:36;;;;;;;13.07;1.10;;;16.60;70.70;;;;;;4959217;29;20479;-76
2021/12/01 06:53:05;;;;;;;6.60;0.75;;;16.70;70.40;;;;;;4958370;29;20051;-73
2021/12/01 06:55:35;;;;;;;3.05;0.65;;;16.80;70.20;;;;;;4956674;29;20119;-78
2021/12/01 06:58:01;;;;;;;8.48;1.30;;;16.80;70.00;;;;;;4959736;29;20087;-76
2021/12/01 07:00:27;;;;;;;6.82;1.42;;;16.90;69.70;;;;;;4957072;29;20054;-75
2021/12/01 07:02:53;;;;;;;7.53;0.85;;;16.90;69.50;;;;;;4958649;28;20154;-77
2021/12/01 07:05:19;;;;;;;5.07;0.60;;;16.60;67.00;;;;;;4958311;29;20186;-79
2021/12/01 07:07:44;;;;;;;5.10;0.85;;;16.60;69.40;;;;;;4958228;29;20059;-77
2021/12/01 07:10:12;;;;;;;5.80;1.00;;;16.70;69.70;;;;;;4942545;29;20043;-79
2021/12/01 07:12:39;;;;;;;7.18;0.80;;;16.70;69.60;;;;;;4958637;29;20363;-79
2021/12/01 07:15:06;;;;;;;8.98;0.80;;;16.80;69.60;;;;;;4959682;29;20050;-78
2021/12/01 07:17:32;;;;;;;6.88;0.80;;;16.80;69.60;;;;;;4958855;29;20367;-77
2021/12/01 07:19:58;;;;;;;6.35;0.90;;;16.80;69.50;;;;;;4957267;29;20051;-79
2021/12/01 07:22:23;;;;;;;8.02;1.00;;;16.80;69.70;;;;;;4958827;29;20039;-79
2021/12/01 07:24:49;;;;;;;7.97;1.15;;;16.70;69.80;;;;;;4958021;29;20129;-78
2021/12/01 07:27:15;;;;;;;11.85;1.13;;;16.60;69.40;;;;;;4957716;29;20051;-78
2021/12/01 07:29:43;;;;;;;11.80;1.02;;;16.60;70.10;;;;;;4958158;29;20356;-81
2021/12/01 07:32:10;;;;;;;8.07;0.90;;;16.60;70.20;;;;;;4958498;29;20043;-79
2021/12/01 07:34:41;;;;;;;6.78;1.25;;;16.60;70.20;;;;;;4959472;28;20050;-78
2021/12/01 07:37:12;;;;;;;15.48;1.23;;;16.60;70.20;;;;;;4958363;29;20090;-75
2021/12/01 07:39:38;;;;;;;15.27;1.40;;;16.60;70.00;;;;;;4958905;28;20126;-75
2021/12/01 07:42:05;;;;;;;15.40;1.63;;;16.70;69.80;;;;;;4958835;28;20070;-75
2021/12/01 07:44:31;;;;;;;9.88;1.70;;;16.70;69.50;;;;;;4958842;28;20459;-74
2021/12/01 07:46:57;;;;;;;12.45;1.58;;;16.70;69.30;;;;;;4958971;28;20428;-74
2021/12/01 07:49:23;;;;;;;8.40;1.25;;;16.70;68.80;;;;;;4958909;29;20093;-74
2021/12/01 07:51:49;;;;;;;12.35;1.92;;;16.70;68.50;;;;;;4958679;29;20043;-76
2021/12/01 07:54:15;;;;;;;12.05;1.65;;;16.70;68.50;;;;;;4958220;29;20075;-73
2021/12/01 07:56:41;;;;;;;8.90;1.70;;;16.70;68.70;;;;;;4958201;29;20047;-73
2021/12/01 07:59:07;;;;;;;9.13;1.73;;;16.70;68.80;;;;;;4958257;28;20039;-75
2021/12/01 08:01:33;;;;;;;11.40;2.08;;;16.80;68.80;;;;;;4958670;29;20130;-76
2021/12/01 08:03:58;;;;;;;7.90;1.45;;;16.80;68.70;;;;;;4957999;29;20047;-73
2021/12/01 08:06:25;;;;;;;11.35;1.50;;;16.80;68.80;;;;;;4958900;29;20043;-74
2021/12/01 08:08:51;;;;;;;12.93;1.58;;;16.80;68.60;;;;;;4958787;29;20047;-73
2021/12/01 08:11:17;;;;;;;8.63;1.25;;;16.80;68.20;;;;;;4958520;29;20046;-72
2021/12/01 08:13:43;;;;;;;10.82;1.70;;;16.90;68.30;;;;;;4959154;29;20328;-73
2021/12/01 08:16:09;;;;;;;10.27;1.80;;;16.90;68.10;;;;;;4958414;29;20057;-72
2021/12/01 08:18:34;;;;;;;12.20;1.98;;;16.80;68.30;;;;;;4958906;29;20051;-74
2021/12/01 08:21:00;;;;;;;7.82;1.70;;;16.90;68.10;;;;;;4958285;29;20550;-74
2021/12/01 08:23:26;;;;;;;11.48;1.42;;;16.90;68.30;;;;;;4958617;29;20078;-74
2021/12/01 08:25:52;;;;;;;15.05;1.90;;;16.90;67.80;;;;;;4957289;29;20062;-78
2021/12/01 08:28:17;;;;;;;20.95;2.33;;;16.90;68.10;;;;;;4957087;29;20114;-78
2021/12/01 08:30:43;;;;;;;25.05;3.13;;;17.00;68.00;;;;;;4941062;29;20054;-73
2021/12/01 08:33:09;;;;;;;22.42;3.85;;;16.90;67.60;;;;;;4957887;29;20050;-73
2021/12/01 08:35:35;;;;;;;19.38;2.85;;;16.80;67.20;;;;;;4958240;29;20059;-73
2021/12/01 08:38:00;;;;;;;17.55;2.25;;;16.80;67.50;;;;;;4958056;29;20050;-72
2021/12/01 08:40:26;;;;;;;19.88;2.60;;;16.80;67.80;;;;;;4957884;28;20054;-73
2021/12/01 08:42:52;;;;;;;14.90;2.13;;;16.70;68.00;;;;;;4957996;28;20059;-73
2021/12/01 08:45:18;;;;;;;19.77;2.88;;;16.70;68.50;;;;;;4958566;28;20426;-74
2021/12/01 08:47:44;;;;;;;12.73;2.03;;;16.70;69.10;;;;;;4958155;28;20047;-77
2021/12/01 08:50:11;;;;;;;15.95;2.40;;;16.80;69.40;;;;;;4955878;29;20455;-73
2021/12/01 08:52:38;;;;;;;12.20;2.17;;;16.80;69.50;;;;;;4956047;29;20062;-72
2021/12/01 08:55:06;;;;;;;12.23;2.30;;;16.80;73.10;;;;;;4957890;29;20101;-72
2021/12/01 08:57:32;;;;;;;15.10;2.08;;;16.80;71.60;;;;;;4957224;28;20345;-73
2021/12/01 08:59:57;;;;;;;13.50;1.70;;;16.80;71.20;;;;;;4956730;29;20138;-74
2021/12/01 09:02:23;;;;;;;9.80;1.65;;;16.70;71.00;;;;;;4957855;29;20061;-76
2021/12/01 09:04:50;;;;;;;15.20;1.98;;;16.70;71.10;;;;;;4957863;29;20047;-72
2021/12/01 09:07:17;;;;;;;15.70;2.58;;;16.70;71.50;;;;;;4957106;28;20478;-75
2021/12/01 09:09:43;;;;;;;12.15;2.13;;;16.70;71.50;;;;;;4956115;29;20062;-72
2021/12/01 09:12:09;;;;;;;14.32;2.17;;;16.70;71.60;;;;;;4957538;29;20416;-71
2021/12/01 09:14:35;;;;;;;25.17;3.22;;;16.70;71.20;;;;;;4957274;29;20086;-71
2021/12/01 09:17:01;;;;;;;13.32;2.65;;;16.70;71.60;;;;;;4957549;28;20089;-71
2021/12/01 09:19:26;;;;;;;11.93;2.65;;;16.70;71.50;;;;;;4957641;28;20414;-74
2021/12/01 09:21:52;;;;;;;14.15;2.50;;;16.70;71.90;;;;;;4957105;28;20043;-73
2021/12/01 09:24:20;;;;;;;10.65;2.00;;;16.70;71.30;;;;;;4957640;29;20082;-74
2021/12/01 09:26:46;;;;;;;11.18;2.22;;;16.70;71.30;;;;;;4957175;29;20051;-74
2021/12/01 09:29:12;;;;;;;10.25;1.88;;;16.70;71.20;;;;;;4957186;29;20398;-73
2021/12/01 09:31:37;;;;;;;10.25;2.08;;;16.70;70.90;;;;;;4957155;29;20461;-73
2021/12/01 09:34:07;;;;;;;12.73;1.70;;;16.70;70.60;;;;;;4957460;29;20051;-79
2021/12/01 09:36:32;;;;;;;15.70;2.03;;;16.70;70.70;;;;;;4957069;29;20082;-73
2021/12/01 09:38:58;;;;;;;9.60;2.03;;;16.80;69.90;;;;;;4957082;29;20501;-73
2021/12/01 09:41:24;;;;;;;18.25;2.53;;;16.80;69.50;;;;;;4955204;29;20059;-73
2021/12/01 09:43:50;;;;;;;10.60;1.95;;;16.90;69.50;;;;;;4956463;29;20059;-74
2021/12/01 09:46:17;;;;;;;6.30;1.63;;;16.90;69.50;;;;;;4957108;29;20121;-74
2021/12/01 09:48:43;;;;;;;15.55;1.90;;;16.90;69.60;;;;;;4955572;29;20118;-80
2021/12/01 09:51:11;;;;;;;12.18;2.28;;;17.00;69.60;;;;;;4955909;28;20069;-75
2021/12/01 09:53:36;;;;;;;8.73;2.03;;;17.10;69.40;;;;;;4955789;29;20044;-75
2021/12/01 09:56:03;;;;;;;8.35;1.73;;;17.10;69.20;;;;;;4953589;29;20069;-75
2021/12/01 09:58:33;;;;;;;11.68;2.00;;;17.20;69.00;;;;;;4954793;28;20062;-73
2021/12/01 10:01:08;;;;;;;16.70;2.17;;;17.20;68.70;;;;;;4954550;29;20122;-75
2021/12/01 10:03:34;;;;;;;13.38;2.50;;;17.20;68.70;;;;;;4954933;29;20113;-75
2021/12/01 10:06:11;;;;;;;8.50;1.92;;;17.30;68.50;;;;;;4954955;29;20051;-75
2021/12/01 10:08:36;;;;;;;13.70;2.03;;;17.20;67.90;;;;;;4957676;28;20082;-73
2021/12/01 10:11:11;;;;;;;12.40;1.98;;;17.20;67.40;;;;;;4960548;29;20082;-72
2021/12/01 10:13:41;;;;;;;17.65;2.00;;;17.10;67.30;;;;;;4958684;29;20050;-72
2021/12/01 10:16:10;;;;;;;10.18;1.50;;;17.10;67.40;;;;;;4960681;28;20047;-72
2021/12/01 10:18:40;;;;;;;7.72;2.08;;;17.20;67.40;;;;;;4960614;28;20073;-76
2021/12/01 10:21:13;;;;;;;13.13;2.00;;;17.10;67.40;;;;;;4960643;28;20546;-72
2021/12/01 10:23:44;;;;;;;12.38;1.92;;;17.10;67.30;;;;;;4960167;28;20078;-76
2021/12/01 10:26:16;;;;;;;10.93;1.75;;;17.10;67.50;;;;;;4956261;29;20122;-75
2021/12/01 10:28:54;;;;;;;11.93;2.25;;;17.10;67.30;;;;;;4958930;28;20347;-76
2021/12/01 10:31:43;;;;;;;9.77;1.63;;;17.10;67.30;;;;;;4959763;28;20101;-75
2021/12/01 10:34:23;;;;;;;20.13;2.90;;;17.10;67.40;;;;;;4944066;29;20050;-73
2021/12/01 10:37:06;;;;;;;14.02;2.65;;;17.10;67.20;;;;;;4960382;28;20397;-76
2021/12/01 10:39:32;;;;;;;12.50;2.95;;;17.00;67.10;;;;;;4956299;29;20141;-77
2021/12/01 10:42:06;;;;;;;18.27;3.83;;;17.00;67.00;;;;;;4959184;28;20138;-76
2021/12/01 10:44:33;;;;;;;17.58;2.72;;;17.10;64.60;;;;;;4960215;29;20482;-72
2021/12/01 10:47:10;;;;;;;20.60;2.70;;;16.90;64.50;;;;;;4958884;29;20431;-72
2021/12/01 10:49:44;;;;;;;19.30;3.10;;;16.90;64.60;;;;;;4941284;29;20055;-73
2021/12/01 10:52:33;;;;;;;20.77;2.55;;;16.90;64.50;;;;;;4940737;29;20054;-71
2021/12/01 10:55:24;;;;;;;13.88;2.05;;;16.80;64.60;;;;;;4940858;29;20047;-72
2021/12/01 10:57:57;;;;;;;15.82;3.00;;;16.80;65.00;;;;;;4941077;29;20052;-72
2021/12/01 11:00:39;;;;;;;17.80;2.77;;;16.80;66.20;;;;;;4947927;29;20383;-72
2021/12/01 11:03:07;;;;;;;13.23;2.75;;;16.80;65.60;;;;;;4946612;29;20047;-72
2021/12/01 11:05:36;;;;;;;12.40;2.20;;;16.80;65.80;;;;;;4959817;28;20074;-73
2021/12/01 11:08:22;;;;;;;8.18;2.20;;;16.80;66.00;;;;;;4959954;29;20122;-72
2021/12/01 11:10:53;;;;;;;9.93;2.25;;;16.80;66.10;;;;;;4959631;28;20055;-77
2021/12/01 11:13:21;;;;;;;14.60;3.00;;;16.90;66.30;;;;;;4959121;29;20055;-72
2021/12/01 11:16:06;;;;;;;12.35;2.33;;;16.80;66.50;;;;;;4959657;28;20342;-74
2021/12/01 11:18:35;;;;;;;15.27;2.22;;;16.80;66.60;;;;;;4959505;29;20122;-75
2021/12/01 11:21:09;;;;;;;16.73;3.35;;;16.80;66.90;;;;;;4958881;28;20321;-76
2021/12/01 11:23:40;;;;;;;15.30;2.53;;;16.80;67.00;;;;;;4951637;29;20083;-78
2021/12/01 11:26:10;;;;;;;26.95;3.60;;;16.80;67.00;;;;;;4959587;28;20094;-76
2021/12/01 11:28:52;;;;;;;22.48;3.60;;;16.80;67.10;;;;;;4959211;28;20098;-74
2021/12/01 11:31:34;;;;;;;13.10;3.03;;;16.70;67.10;;;;;;4959319;29;20058;-75
2021/12/01 11:34:03;;;;;;;11.27;2.80;;;16.60;66.60;;;;;;4959226;29;20058;-73
2021/12/01 11:36:36;;;;;;;18.10;2.95;;;16.30;66.20;;;;;;4959148;29;20375;-75
2021/12/01 11:39:06;;;;;;;13.93;3.07;;;16.30;67.60;;;;;;4959484;28;20072;-76
2021/12/01 11:41:36;;;;;;;18.95;3.33;;;16.40;67.80;;;;;;4942993;29;20295;-75
2021/12/01 11:44:03;;;;;;;33.67;3.70;;;16.40;68.00;;;;;;4939959;29;20363;-74
2021/12/01 11:46:32;;;;;;;18.30;3.70;;;16.40;68.10;;;;;;4939857;29;20059;-75
2021/12/01 11:49:21;;;;;;;22.70;3.72;;;16.50;68.20;;;;;;4940581;29;20383;-75
2021/12/01 11:51:54;;;;;;;17.08;3.08;;;16.50;68.10;;;;;;4938881;29;20375;-74
2021/12/01 11:54:22;;;;;;;18.58;3.10;;;16.50;68.70;;;;;;4939792;29;20110;-76
2021/12/01 11:56:58;;;;;;;17.70;3.00;;;16.50;68.10;;;;;;4940121;29;20055;-76
2021/12/01 11:59:24;;;;;;;21.08;2.92;;;16.50;68.20;;;;;;4939007;29;20047;-74
2021/12/01 12:02:02;;;;;;;22.30;3.92;;;16.50;68.10;;;;;;4941791;29;20050;-74
2021/12/01 12:04:39;;;;;;;23.30;3.13;;;16.50;68.00;;;;;;4954232;29;20069;-74
2021/12/01 12:07:16;;;;;;;20.25;3.47;;;16.50;68.20;;;;;;4957642;29;20059;-73
2021/12/01 12:09:54;;;;;;;16.48;3.15;;;16.50;68.10;;;;;;4958181;29;20486;-73
2021/12/01 12:12:20;;;;;;;24.35;4.03;;;16.50;68.10;;;;;;4958686;28;20055;-74
2021/12/01 12:14:46;;;;;;;17.40;3.28;;;16.50;68.20;;;;;;4958564;28;20122;-74
2021/12/01 12:17:21;;;;;;;20.50;3.17;;;16.50;67.70;;;;;;4957887;29;20047;-74
2021/12/01 12:19:49;;;;;;;38.70;6.22;;;16.50;67.80;;;;;;4957424;29;20059;-74
2021/12/01 12:22:21;;;;;;;59.42;7.70;;;16.50;67.90;;;;;;4958292;28;20051;-75
2021/12/01 12:24:55;;;;;;;50.45;6.75;;;16.50;67.80;;;;;;4958846;28;20332;-74
2021/12/01 12:27:42;;;;;;;49.42;6.75;;;16.50;67.90;;;;;;4958448;28;20051;-74
2021/12/01 12:30:35;;;;;;;31.98;4.13;;;16.50;67.70;;;;;;4958227;28;20058;-76
2021/12/01 12:33:26;;;;;;;33.42;5.65;;;16.50;67.50;;;;;;4957918;28;20415;-75
2021/12/01 12:35:55;;;;;;;33.22;4.82;;;16.50;67.30;;;;;;4957543;29;20043;-74
2021/12/01 12:38:20;;;;;;;28.92;4.70;;;16.50;67.30;;;;;;4957971;29;20086;-76
2021/12/01 12:40:47;;;;;;;31.45;4.60;;;16.40;67.80;;;;;;4957825;28;20094;-75
2021/12/01 12:43:23;;;;;;;28.13;4.22;;;16.40;67.10;;;;;;4957762;28;20459;-75
2021/12/01 12:46:11;;;;;;;20.45;3.72;;;16.40;66.80;;;;;;4957992;28;20058;-74
2021/12/01 12:48:59;;;;;;;33.63;3.90;;;16.40;66.60;;;;;;4941214;29;20058;-76
2021/12/01 12:51:32;;;;;;;23.10;3.92;;;16.40;66.80;;;;;;4958255;28;20046;-75